sensor_id;sensor_type;location;lat;lon;timestamp;pressure;altitude;pressure_sealevel;temperature;humidity
62800;BME280;48842;51.046;13.796;2024-02-04T00:00:22;100675.22;;;12.33;nan
62800;BME280;48842;51.046;13.796;2024-02-04T00:02:47;100675.22;;;12.38;nan
62800;BME280;48842;51.046;13.796;2024-02-04T00:05:12;100687.50;;;12.39;nan
62800;BME280;48842;51.046;13.796;2024-02-04T00:07:38;100669.09;;;12.39;nan
62800;BME280;48842;51.046;13.796;2024-02-04T00:10:03;100678.75;;;12.37;nan
62800;BME280;48842;51.046;13.796;2024-02-04T00:12:28;100678.75;;;12.38;nan
62800;BME280;48842;51.046;13.796;2024-02-04T00:14:54;100669.09;;;12.37;nan
62800;BME280;48842;51.046;13.796;2024-02-04T00:17:19;100665.63;;;12.40;nan
62800;BME280;48842;51.046;13.796;2024-02-04T00:19:44;100665.63;;;12.40;nan
62800;BME280;48842;51.046;13.796;2024-02-04T00:22:10;100656.84;;;12.41;nan
62800;BME280;48842;51.046;13.796;2024-02-04T00:24:35;100661.22;;;12.42;nan
62800;BME280;48842;51.046;13.796;2024-02-04T00:27:00;100656.84;;;12.41;nan
62800;BME280;48842;51.046;13.796;2024-02-04T00:29:26;100669.97;;;12.39;nan
62800;BME280;48842;51.046;13.796;2024-02-04T00:31:51;100657.69;;;12.32;nan
62800;BME280;48842;51.046;13.796;2024-02-04T00:34:16;100661.22;;;12.33;nan
62800;BME280;48842;51.046;13.796;2024-02-04T00:36:42;100665.59;;;12.34;nan
62800;BME280;48842;51.046;13.796;2024-02-04T00:39:07;100670.81;;;12.32;nan
62800;BME280;48842;51.046;13.796;2024-02-04T00:41:33;100680.47;;;12.33;nan
62800;BME280;48842;51.046;13.796;2024-02-04T00:43:59;100678.72;;;12.32;nan
62800;BME280;48842;51.046;13.796;2024-02-04T00:46:24;100678.72;;;12.32;nan
62800;BME280;48842;51.046;13.796;2024-02-04T00:48:49;100671.72;;;12.31;nan
62800;BME280;48842;51.046;13.796;2024-02-04T00:51:15;100696.22;;;12.30;nan
62800;BME280;48842;51.046;13.796;2024-02-04T00:53:42;100699.72;;;12.29;nan
62800;BME280;48842;51.046;13.796;2024-02-04T00:56:08;100683.97;;;12.29;nan
62800;BME280;48842;51.046;13.796;2024-02-04T00:58:33;100669.97;;;12.29;nan
62800;BME280;48842;51.046;13.796;2024-02-04T01:00:58;100674.31;;;12.17;nan
62800;BME280;48842;51.046;13.796;2024-02-04T01:03:23;100673.44;;;12.17;nan
62800;BME280;48842;51.046;13.796;2024-02-04T01:05:49;100650.66;;;12.11;nan
62800;BME280;48842;51.046;13.796;2024-02-04T01:08:14;100666.41;;;12.07;nan
62800;BME280;48842;51.046;13.796;2024-02-04T01:10:39;100660.25;;;12.00;nan
62800;BME280;48842;51.046;13.796;2024-02-04T01:13:04;100664.63;;;11.99;nan
62800;BME280;48842;51.046;13.796;2024-02-04T01:15:30;100661.13;;;12.00;nan
62800;BME280;48842;51.046;13.796;2024-02-04T01:17:55;100659.38;;;11.99;nan
62800;BME280;48842;51.046;13.796;2024-02-04T01:20:20;100662.88;;;11.98;nan
62800;BME280;48842;51.046;13.796;2024-02-04T01:22:45;100660.25;;;12.00;nan
62800;BME280;48842;51.046;13.796;2024-02-04T01:25:11;100655.00;;;12.03;nan
62800;BME280;48842;51.046;13.796;2024-02-04T01:27:36;100684.78;;;12.05;nan
62800;BME280;48842;51.046;13.796;2024-02-04T01:30:01;100675.16;;;12.05;nan
62800;BME280;48842;51.046;13.796;2024-02-04T01:32:26;100668.16;;;12.08;nan
62800;BME280;48842;51.046;13.796;2024-02-04T01:34:52;100662.03;;;12.09;nan
62800;BME280;48842;51.046;13.796;2024-02-04T01:37:17;100673.41;;;12.09;nan
62800;BME280;48842;51.046;13.796;2024-02-04T01:39:43;100664.66;;;12.12;nan
62800;BME280;48842;51.046;13.796;2024-02-04T01:42:08;100657.66;;;12.12;nan
62800;BME280;48842;51.046;13.796;2024-02-04T01:44:33;100667.28;;;12.13;nan
62800;BME280;48842;51.046;13.796;2024-02-04T01:46:59;100666.41;;;12.13;nan
62800;BME280;48842;51.046;13.796;2024-02-04T01:49:24;100656.78;;;12.10;nan
62800;BME280;48842;51.046;13.796;2024-02-04T01:51:50;100664.66;;;12.09;nan
62800;BME280;48842;51.046;13.796;2024-02-04T01:54:16;100659.38;;;11.99;nan
62800;BME280;48842;51.046;13.796;2024-02-04T01:56:42;100668.09;;;11.95;nan
62800;BME280;48842;51.046;13.796;2024-02-04T01:59:09;100664.56;;;11.90;nan
62800;BME280;48842;51.046;13.796;2024-02-04T02:01:35;100660.19;;;11.86;nan
62800;BME280;48842;51.046;13.796;2024-02-04T02:04:00;100667.13;;;11.81;nan
62800;BME280;48842;51.046;13.796;2024-02-04T02:06:27;100665.41;;;11.83;nan
62800;BME280;48842;51.046;13.796;2024-02-04T02:08:52;100662.78;;;11.84;nan
62800;BME280;48842;51.046;13.796;2024-02-04T02:11:40;100659.28;;;11.85;nan
62800;BME280;48842;51.046;13.796;2024-02-04T02:14:11;100649.69;;;11.87;nan
62800;BME280;48842;51.046;13.796;2024-02-04T02:16:38;100650.53;;;11.88;nan
62800;BME280;48842;51.046;13.796;2024-02-04T02:19:18;100647.91;;;11.88;nan
62800;BME280;48842;51.046;13.796;2024-02-04T02:22:18;100640.03;;;11.85;nan
62800;BME280;48842;51.046;13.796;2024-02-04T02:24:50;100638.28;;;11.81;nan
62800;BME280;48842;51.046;13.796;2024-02-04T02:27:16;100633.94;;;11.84;nan
62800;BME280;48842;51.046;13.796;2024-02-04T02:29:41;100625.16;;;11.85;nan
62800;BME280;48842;51.046;13.796;2024-02-04T02:32:06;100632.16;;;11.86;nan
62800;BME280;48842;51.046;13.796;2024-02-04T02:34:32;100638.28;;;11.87;nan
62800;BME280;48842;51.046;13.796;2024-02-04T02:37:24;100642.66;;;11.88;nan
62800;BME280;48842;51.046;13.796;2024-02-04T02:40:06;100640.91;;;11.87;nan
62800;BME280;48842;51.046;13.796;2024-02-04T02:42:32;100640.06;;;11.90;nan
62800;BME280;48842;51.046;13.796;2024-02-04T02:44:59;100653.22;;;11.94;nan
62800;BME280;48842;51.046;13.796;2024-02-04T02:47:26;100657.59;;;11.95;nan
62800;BME280;48842;51.046;13.796;2024-02-04T02:49:53;100647.97;;;11.96;nan
62800;BME280;48842;51.046;13.796;2024-02-04T02:52:19;100647.13;;;11.98;nan
62800;BME280;48842;51.046;13.796;2024-02-04T02:54:45;100632.25;;;11.99;nan
62800;BME280;48842;51.046;13.796;2024-02-04T02:57:10;100632.25;;;12.00;nan
62800;BME280;48842;51.046;13.796;2024-02-04T02:59:35;100618.22;;;12.00;nan
62800;BME280;48842;51.046;13.796;2024-02-04T03:02:00;100622.63;;;12.01;nan
62800;BME280;48842;51.046;13.796;2024-02-04T03:04:26;100613.00;;;12.01;nan
62800;BME280;48842;51.046;13.796;2024-02-04T03:06:51;100618.25;;;12.01;nan
62800;BME280;48842;51.046;13.796;2024-02-04T03:09:16;100624.38;;;12.02;nan
62800;BME280;48842;51.046;13.796;2024-02-04T03:11:41;100629.63;;;12.02;nan
62800;BME280;48842;51.046;13.796;2024-02-04T03:14:07;100624.38;;;12.03;nan
62800;BME280;48842;51.046;13.796;2024-02-04T03:16:33;100621.75;;;12.07;nan
62800;BME280;48842;51.046;13.796;2024-02-04T03:18:58;100625.25;;;12.05;nan
62800;BME280;48842;51.046;13.796;2024-02-04T03:21:23;100627.03;;;12.07;nan
62800;BME280;48842;51.046;13.796;2024-02-04T03:23:48;100618.28;;;12.08;nan
62800;BME280;48842;51.046;13.796;2024-02-04T03:26:17;100623.53;;;12.09;nan
62800;BME280;48842;51.046;13.796;2024-02-04T03:28:45;100622.63;;;12.02;nan
62800;BME280;48842;51.046;13.796;2024-02-04T03:31:10;100617.38;;;12.07;nan
62800;BME280;48842;51.046;13.796;2024-02-04T03:33:35;100620.00;;;12.07;nan
62800;BME280;48842;51.046;13.796;2024-02-04T03:36:01;100627.03;;;12.07;nan
62800;BME280;48842;51.046;13.796;2024-02-04T03:38:26;100629.63;;;12.03;nan
62800;BME280;48842;51.046;13.796;2024-02-04T03:40:51;100632.28;;;12.07;nan
62800;BME280;48842;51.046;13.796;2024-02-04T03:43:17;100640.16;;;12.07;nan
62800;BME280;48842;51.046;13.796;2024-02-04T03:45:42;100645.41;;;12.07;nan
62800;BME280;48842;51.046;13.796;2024-02-04T03:48:07;100642.78;;;12.07;nan
62800;BME280;48842;51.046;13.796;2024-02-04T03:50:32;100645.41;;;12.03;nan
62800;BME280;48842;51.046;13.796;2024-02-04T03:52:58;100642.75;;;12.02;nan
62800;BME280;48842;51.046;13.796;2024-02-04T03:55:23;100640.13;;;12.00;nan
62800;BME280;48842;51.046;13.796;2024-02-04T03:57:48;100647.97;;;11.94;nan
62800;BME280;48842;51.046;13.796;2024-02-04T04:00:14;100647.94;;;11.93;nan
62800;BME280;48842;51.046;13.796;2024-02-04T04:02:40;100647.94;;;11.90;nan
62800;BME280;48842;51.046;13.796;2024-02-04T04:05:06;100659.38;;;11.93;nan
62800;BME280;48842;51.046;13.796;2024-02-04T04:07:31;100655.84;;;11.94;nan
62800;BME280;48842;51.046;13.796;2024-02-04T04:09:56;100647.97;;;11.96;nan
62800;BME280;48842;51.046;13.796;2024-02-04T04:12:21;100632.25;;;11.97;nan
62800;BME280;48842;51.046;13.796;2024-02-04T04:14:47;100632.22;;;11.96;nan
62800;BME280;48842;51.046;13.796;2024-02-04T04:17:12;100622.63;;;11.96;nan
62800;BME280;48842;51.046;13.796;2024-02-04T04:19:38;100606.88;;;11.93;nan
62800;BME280;48842;51.046;13.796;2024-02-04T04:22:04;100619.94;;;11.88;nan
62800;BME280;48842;51.046;13.796;2024-02-04T04:24:29;100622.53;;;11.84;nan
62800;BME280;48842;51.046;13.796;2024-02-04T04:26:54;100626.06;;;11.86;nan
62800;BME280;48842;51.046;13.796;2024-02-04T04:29:20;100615.56;;;11.89;nan
62800;BME280;48842;51.046;13.796;2024-02-04T04:31:45;100611.19;;;11.91;nan
62800;BME280;48842;51.046;13.796;2024-02-04T04:34:11;100607.72;;;11.94;nan
62800;BME280;48842;51.046;13.796;2024-02-04T04:36:36;100608.63;;;12.02;nan
62800;BME280;48842;51.046;13.796;2024-02-04T04:39:01;100613.03;;;12.08;nan
62800;BME280;48842;51.046;13.796;2024-02-04T04:41:27;100618.28;;;12.11;nan
62800;BME280;48842;51.046;13.796;2024-02-04T04:43:52;100613.91;;;12.13;nan
62800;BME280;48842;51.046;13.796;2024-02-04T04:46:17;100616.53;;;12.16;nan
62800;BME280;48842;51.046;13.796;2024-02-04T04:48:42;100616.53;;;12.16;nan
62800;BME280;48842;51.046;13.796;2024-02-04T04:51:08;100613.03;;;12.18;nan
62800;BME280;48842;51.046;13.796;2024-02-04T04:53:34;100621.78;;;12.17;nan
62800;BME280;48842;51.046;13.796;2024-02-04T04:55:59;100606.03;;;12.17;nan
62800;BME280;48842;51.046;13.796;2024-02-04T04:58:24;100606.03;;;12.20;nan
62800;BME280;48842;51.046;13.796;2024-02-04T05:00:50;100606.91;;;12.24;nan
62800;BME280;48842;51.046;13.796;2024-02-04T05:03:15;100604.28;;;12.24;nan
62800;BME280;48842;51.046;13.796;2024-02-04T05:05:40;100596.41;;;12.26;nan
62800;BME280;48842;51.046;13.796;2024-02-04T05:08:06;100588.53;;;12.27;nan
62800;BME280;48842;51.046;13.796;2024-02-04T05:10:31;100569.25;;;12.23;nan
62800;BME280;48842;51.046;13.796;2024-02-04T05:12:56;100587.63;;;12.19;nan
62800;BME280;48842;51.046;13.796;2024-02-04T05:15:21;100585.91;;;12.18;nan
62800;BME280;48842;51.046;13.796;2024-02-04T05:17:47;100578.03;;;12.18;nan
62800;BME280;48842;51.046;13.796;2024-02-04T05:20:12;100581.53;;;12.17;nan
62800;BME280;48842;51.046;13.796;2024-02-04T05:22:37;100574.50;;;12.19;nan
62800;BME280;48842;51.046;13.796;2024-02-04T05:25:03;100576.28;;;12.21;nan
62800;BME280;48842;51.046;13.796;2024-02-04T05:27:29;100572.78;;;12.21;nan
62800;BME280;48842;51.046;13.796;2024-02-04T05:29:55;100560.50;;;12.23;nan
62800;BME280;48842;51.046;13.796;2024-02-04T05:32:20;100588.53;;;12.19;nan
62800;BME280;48842;51.046;13.796;2024-02-04T05:34:45;100566.63;;;12.19;nan
62800;BME280;48842;51.046;13.796;2024-02-04T05:37:11;100570.16;;;12.16;nan
62800;BME280;48842;51.046;13.796;2024-02-04T05:39:36;100566.63;;;12.19;nan
62800;BME280;48842;51.046;13.796;2024-02-04T05:42:01;100549.13;;;12.21;nan
62800;BME280;48842;51.046;13.796;2024-02-04T05:44:26;100576.28;;;12.20;nan
62800;BME280;48842;51.046;13.796;2024-02-04T05:46:51;100559.66;;;12.18;nan
62800;BME280;48842;51.046;13.796;2024-02-04T05:49:17;100542.13;;;12.14;nan
62800;BME280;48842;51.046;13.796;2024-02-04T05:51:43;100539.50;;;12.17;nan
62800;BME280;48842;51.046;13.796;2024-02-04T05:54:08;100540.38;;;12.16;nan
62800;BME280;48842;51.046;13.796;2024-02-04T05:56:34;100535.13;;;12.13;nan
62800;BME280;48842;51.046;13.796;2024-02-04T05:58:59;100539.50;;;12.11;nan
62800;BME280;48842;51.046;13.796;2024-02-04T06:01:25;100537.75;;;12.11;nan
62800;BME280;48842;51.046;13.796;2024-02-04T06:03:50;100541.22;;;12.09;nan
62800;BME280;48842;51.046;13.796;2024-02-04T06:06:16;100528.13;;;12.16;nan
62800;BME280;48842;51.046;13.796;2024-02-04T06:08:43;100548.25;;;12.17;nan
62800;BME280;48842;51.046;13.796;2024-02-04T06:11:12;100544.75;;;12.18;nan
62800;BME280;48842;51.046;13.796;2024-02-04T06:13:42;100541.25;;;12.18;nan
62800;BME280;48842;51.046;13.796;2024-02-04T06:16:08;100551.78;;;12.16;nan
62800;BME280;48842;51.046;13.796;2024-02-04T06:18:34;100536.00;;;12.18;nan
62800;BME280;48842;51.046;13.796;2024-02-04T06:21:00;100557.00;;;12.12;nan
62800;BME280;48842;51.046;13.796;2024-02-04T06:23:25;100535.13;;;12.17;nan
62800;BME280;48842;51.046;13.796;2024-02-04T06:25:50;100533.38;;;12.18;nan
62800;BME280;48842;51.046;13.796;2024-02-04T06:28:15;100543.00;;;12.19;nan
62800;BME280;48842;51.046;13.796;2024-02-04T06:30:41;100538.63;;;12.18;nan
62800;BME280;48842;51.046;13.796;2024-02-04T06:33:06;100532.50;;;12.17;nan
62800;BME280;48842;51.046;13.796;2024-02-04T06:35:32;100535.13;;;12.16;nan
62800;BME280;48842;51.046;13.796;2024-02-04T06:37:57;100515.88;;;12.12;nan
62800;BME280;48842;51.046;13.796;2024-02-04T06:40:22;100511.50;;;12.10;nan
62800;BME280;48842;51.046;13.796;2024-02-04T06:42:48;100510.63;;;12.08;nan
62800;BME280;48842;51.046;13.796;2024-02-04T06:45:13;100500.09;;;12.06;nan
62800;BME280;48842;51.046;13.796;2024-02-04T06:47:38;100501.84;;;12.02;nan
62800;BME280;48842;51.046;13.796;2024-02-04T06:50:04;100510.59;;;12.03;nan
62800;BME280;48842;51.046;13.796;2024-02-04T06:52:30;100510.59;;;12.04;nan
62800;BME280;48842;51.046;13.796;2024-02-04T06:54:56;100508.84;;;12.10;nan
62800;BME280;48842;51.046;13.796;2024-02-04T06:57:21;100512.34;;;12.13;nan
62800;BME280;48842;51.046;13.796;2024-02-04T06:59:46;100517.59;;;12.15;nan
62800;BME280;48842;51.046;13.796;2024-02-04T07:02:12;100526.38;;;12.17;nan
62800;BME280;48842;51.046;13.796;2024-02-04T07:04:37;100529.84;;;12.19;nan
62800;BME280;48842;51.046;13.796;2024-02-04T07:07:02;100521.13;;;12.20;nan
62800;BME280;48842;51.046;13.796;2024-02-04T07:09:28;100511.47;;;12.23;nan
62800;BME280;48842;51.046;13.796;2024-02-04T07:11:53;100511.50;;;12.28;nan
62800;BME280;48842;51.046;13.796;2024-02-04T07:14:18;100507.09;;;12.30;nan
62800;BME280;48842;51.046;13.796;2024-02-04T07:16:43;100508.84;;;12.34;nan
62800;BME280;48842;51.046;13.796;2024-02-04T07:19:09;100503.59;;;12.36;nan
62800;BME280;48842;51.046;13.796;2024-02-04T07:21:34;100500.97;;;12.39;nan
62800;BME280;48842;51.046;13.796;2024-02-04T07:23:59;100508.84;;;12.40;nan
62800;BME280;48842;51.046;13.796;2024-02-04T07:26:24;100507.13;;;12.43;nan
62800;BME280;48842;51.046;13.796;2024-02-04T07:28:50;100509.75;;;12.43;nan
62800;BME280;48842;51.046;13.796;2024-02-04T07:31:15;100500.09;;;12.42;nan
62800;BME280;48842;51.046;13.796;2024-02-04T07:33:40;100493.94;;;12.39;nan
62800;BME280;48842;51.046;13.796;2024-02-04T07:36:06;100493.97;;;12.43;nan
62800;BME280;48842;51.046;13.796;2024-02-04T07:38:31;100502.72;;;12.42;nan
62800;BME280;48842;51.046;13.796;2024-02-04T07:40:56;100492.22;;;12.42;nan
62800;BME280;48842;51.046;13.796;2024-02-04T07:43:24;100480.81;;;12.49;nan
62800;BME280;48842;51.046;13.796;2024-02-04T07:45:49;100489.56;;;12.51;nan
62800;BME280;48842;51.046;13.796;2024-02-04T07:48:14;100476.41;;;12.54;nan
62800;BME280;48842;51.046;13.796;2024-02-04T07:50:40;100482.56;;;12.61;nan
62800;BME280;48842;51.046;13.796;2024-02-04T07:53:05;100486.03;;;12.61;nan
62800;BME280;48842;51.046;13.796;2024-02-04T07:55:30;100467.63;;;12.66;nan
62800;BME280;48842;51.046;13.796;2024-02-04T07:57:55;100477.28;;;12.62;nan
62800;BME280;48842;51.046;13.796;2024-02-04T08:00:21;100487.78;;;12.64;nan
62800;BME280;48842;51.046;13.796;2024-02-04T08:02:46;100487.78;;;12.70;nan
62800;BME280;48842;51.046;13.796;2024-02-04T08:05:12;100497.41;;;12.72;nan
62800;BME280;48842;51.046;13.796;2024-02-04T08:07:37;100473.75;;;12.77;nan
62800;BME280;48842;51.046;13.796;2024-02-04T08:10:03;100471.97;;;12.85;nan
62800;BME280;48842;51.046;13.796;2024-02-04T08:12:28;100471.06;;;12.85;nan
62800;BME280;48842;51.046;13.796;2024-02-04T08:14:54;100485.09;;;12.91;nan
62800;BME280;48842;51.046;13.796;2024-02-04T08:17:19;100483.34;;;12.97;nan
62800;BME280;48842;51.046;13.796;2024-02-04T08:19:44;100474.56;;;12.95;nan
62800;BME280;48842;51.046;13.796;2024-02-04T08:22:09;100450.88;;;13.05;nan
62800;BME280;48842;51.046;13.796;2024-02-04T08:24:35;100450.84;;;13.10;nan
62800;BME280;48842;51.046;13.796;2024-02-04T08:27:01;100459.56;;;13.14;nan
62800;BME280;48842;51.046;13.796;2024-02-04T08:29:26;100454.31;;;13.17;nan
62800;BME280;48842;51.046;13.796;2024-02-04T08:31:52;100463.06;;;13.22;nan
62800;BME280;48842;51.046;13.796;2024-02-04T08:34:18;100466.53;;;13.27;nan
62800;BME280;48842;51.046;13.796;2024-02-04T08:36:45;100482.28;;;13.30;nan
62800;BME280;48842;51.046;13.796;2024-02-04T08:39:10;100467.38;;;13.37;nan
62800;BME280;48842;51.046;13.796;2024-02-04T08:41:36;100479.69;;;13.36;nan
62800;BME280;48842;51.046;13.796;2024-02-04T08:44:01;100481.41;;;13.37;nan
62800;BME280;48842;51.046;13.796;2024-02-04T08:46:26;100479.66;;;13.42;nan
62800;BME280;48842;51.046;13.796;2024-02-04T08:48:51;100466.50;;;13.41;nan
62800;BME280;48842;51.046;13.796;2024-02-04T08:51:17;100473.50;;;13.47;nan
62800;BME280;48842;51.046;13.796;2024-02-04T08:53:43;100491.03;;;13.44;nan
62800;BME280;48842;51.046;13.796;2024-02-04T08:56:08;100492.78;;;13.44;nan
62800;BME280;48842;51.046;13.796;2024-02-04T08:58:35;100477.84;;;13.54;nan
62800;BME280;48842;51.046;13.796;2024-02-04T09:01:02;100483.03;;;13.61;nan
62800;BME280;48842;51.046;13.796;2024-02-04T09:03:27;100475.09;;;13.66;nan
62800;BME280;48842;51.046;13.796;2024-02-04T09:05:53;100460.16;;;13.74;nan
62800;BME280;48842;51.046;13.796;2024-02-04T09:08:18;100490.00;;;13.72;nan
62800;BME280;48842;51.046;13.796;2024-02-04T09:10:43;100483.00;;;13.66;nan
62800;BME280;48842;51.046;13.796;2024-02-04T09:13:08;100490.06;;;13.63;nan
62800;BME280;48842;51.046;13.796;2024-02-04T09:15:34;100485.69;;;13.58;nan
62800;BME280;48842;51.046;13.796;2024-02-04T09:17:59;100494.50;;;13.53;nan
62800;BME280;48842;51.046;13.796;2024-02-04T09:20:24;100492.75;;;13.52;nan
62800;BME280;48842;51.046;13.796;2024-02-04T09:22:49;100503.31;;;13.46;nan
62800;BME280;48842;51.046;13.796;2024-02-04T09:25:15;100494.56;;;13.36;nan
62800;BME280;48842;51.046;13.796;2024-02-04T09:27:40;100504.25;;;13.24;nan
62800;BME280;48842;51.046;13.796;2024-02-04T09:30:05;100504.28;;;13.15;nan
62800;BME280;48842;51.046;13.796;2024-02-04T09:32:31;100497.31;;;13.05;nan
62800;BME280;48842;51.046;13.796;2024-02-04T09:34:57;100479.78;;;13.01;nan
62800;BME280;48842;51.046;13.796;2024-02-04T09:37:22;100478.91;;;13.02;nan
62800;BME280;48842;51.046;13.796;2024-02-04T09:39:47;100471.88;;;13.04;nan
62800;BME280;48842;51.046;13.796;2024-02-04T09:42:21;100485.06;;;13.05;nan
62800;BME280;48842;51.046;13.796;2024-02-04T09:44:48;100489.44;;;13.03;nan
62800;BME280;48842;51.046;13.796;2024-02-04T09:47:14;100501.72;;;13.01;nan
62800;BME280;48842;51.046;13.796;2024-02-04T09:49:39;100486.81;;;13.00;nan
62800;BME280;48842;51.046;13.796;2024-02-04T09:52:08;100485.03;;;13.04;nan
62800;BME280;48842;51.046;13.796;2024-02-04T09:55:03;100493.84;;;13.01;nan
62800;BME280;48842;51.046;13.796;2024-02-04T09:57:31;100508.72;;;12.96;nan
62800;BME280;48842;51.046;13.796;2024-02-04T09:59:57;100486.81;;;13.00;nan
62800;BME280;48842;51.046;13.796;2024-02-04T10:02:22;100471.91;;;13.05;nan
62800;BME280;48842;51.046;13.796;2024-02-04T10:04:48;100477.16;;;13.08;nan
62800;BME280;48842;51.046;13.796;2024-02-04T10:07:14;100479.75;;;13.12;nan
62800;BME280;48842;51.046;13.796;2024-02-04T10:09:41;100479.78;;;13.08;nan
62800;BME280;48842;51.046;13.796;2024-02-04T10:12:07;100485.03;;;13.10;nan
62800;BME280;48842;51.046;13.796;2024-02-04T10:14:33;100463.09;;;13.09;nan
62800;BME280;48842;51.046;13.796;2024-02-04T10:16:59;100464.00;;;13.10;nan
62800;BME280;48842;51.046;13.796;2024-02-04T10:19:24;100470.13;;;13.07;nan
62800;BME280;48842;51.046;13.796;2024-02-04T10:21:58;100456.13;;;13.05;nan
62800;BME280;48842;51.046;13.796;2024-02-04T10:24:24;100449.13;;;13.03;nan
62800;BME280;48842;51.046;13.796;2024-02-04T10:26:49;100461.41;;;12.96;nan
62800;BME280;48842;51.046;13.796;2024-02-04T10:29:14;100450.91;;;12.93;nan
62800;BME280;48842;51.046;13.796;2024-02-04T10:31:40;100446.50;;;12.95;nan
62800;BME280;48842;51.046;13.796;2024-02-04T10:34:05;100439.50;;;12.96;nan
62800;BME280;48842;51.046;13.796;2024-02-04T10:36:31;100436.88;;;12.97;nan
62800;BME280;48842;51.046;13.796;2024-02-04T10:38:57;100428.97;;;13.02;nan
62800;BME280;48842;51.046;13.796;2024-02-04T10:41:23;100430.69;;;13.06;nan
62800;BME280;48842;51.046;13.796;2024-02-04T10:43:50;100429.84;;;13.05;nan
62800;BME280;48842;51.046;13.796;2024-02-04T10:46:19;100422.81;;;13.04;nan
62800;BME280;48842;51.046;13.796;2024-02-04T10:48:50;100420.19;;;13.01;nan
62800;BME280;48842;51.046;13.796;2024-02-04T10:51:17;100407.94;;;12.99;nan
62800;BME280;48842;51.046;13.796;2024-02-04T10:53:44;100405.31;;;12.96;nan
62800;BME280;48842;51.046;13.796;2024-02-04T10:56:42;100405.34;;;12.94;nan
62800;BME280;48842;51.046;13.796;2024-02-04T10:59:10;100390.41;;;12.95;nan
62800;BME280;48842;51.046;13.796;2024-02-04T11:01:38;100390.41;;;12.98;nan
62800;BME280;48842;51.046;13.796;2024-02-04T11:04:04;100390.38;;;13.02;nan
62800;BME280;48842;51.046;13.796;2024-02-04T11:06:31;100394.75;;;13.05;nan
62800;BME280;48842;51.046;13.796;2024-02-04T11:08:57;100398.28;;;13.05;nan
62800;BME280;48842;51.046;13.796;2024-02-04T11:11:23;100381.56;;;13.08;nan
62800;BME280;48842;51.046;13.796;2024-02-04T11:13:53;100377.19;;;13.10;nan
62800;BME280;48842;51.046;13.796;2024-02-04T11:19:36;100362.19;;;13.26;nan
62800;BME280;48842;51.046;13.796;2024-02-04T11:27:47;100356.00;;;13.30;nan
62800;BME280;48842;51.046;13.796;2024-02-04T11:30:13;100342.94;;;13.21;nan
62800;BME280;48842;51.046;13.796;2024-02-04T11:32:40;100340.28;;;13.22;nan
62800;BME280;48842;51.046;13.796;2024-02-04T11:35:07;100335.06;;;13.16;nan
62800;BME280;48842;51.046;13.796;2024-02-04T11:37:33;100345.59;;;13.18;nan
62800;BME280;48842;51.046;13.796;2024-02-04T11:39:58;100357.81;;;13.23;nan
62800;BME280;48842;51.046;13.796;2024-02-04T11:42:24;100363.94;;;13.27;nan
62800;BME280;48842;51.046;13.796;2024-02-04T11:44:49;100334.13;;;13.28;nan
62800;BME280;48842;51.046;13.796;2024-02-04T11:47:25;100345.53;;;13.25;nan
62800;BME280;48842;51.046;13.796;2024-02-04T11:49:58;100348.19;;;13.19;nan
62800;BME280;48842;51.046;13.796;2024-02-04T11:52:26;100337.66;;;13.21;nan
62800;BME280;48842;51.046;13.796;2024-02-04T11:54:52;100347.34;;;13.19;nan
62800;BME280;48842;51.046;13.796;2024-02-04T11:57:17;100333.31;;;13.15;nan
62800;BME280;48842;51.046;13.796;2024-02-04T11:59:43;100338.53;;;13.20;nan
62800;BME280;48842;51.046;13.796;2024-02-04T12:02:10;100343.88;;;13.12;nan
62800;BME280;48842;51.046;13.796;2024-02-04T12:04:37;100334.19;;;13.13;nan
62800;BME280;48842;51.046;13.796;2024-02-04T12:07:04;100329.84;;;13.13;nan
62800;BME280;48842;51.046;13.796;2024-02-04T12:09:30;100328.94;;;13.17;nan
62800;BME280;48842;51.046;13.796;2024-02-04T12:11:56;100324.56;;;13.15;nan
62800;BME280;48842;51.046;13.796;2024-02-04T12:14:22;100319.28;;;13.18;nan
62800;BME280;48842;51.046;13.796;2024-02-04T12:16:47;100305.28;;;13.16;nan
62800;BME280;48842;51.046;13.796;2024-02-04T12:19:13;100307.84;;;13.22;nan
62800;BME280;48842;51.046;13.796;2024-02-04T12:21:38;100296.44;;;13.26;nan
62800;BME280;48842;51.046;13.796;2024-02-04T12:24:04;100298.13;;;13.30;nan
62800;BME280;48842;51.046;13.796;2024-02-04T12:26:29;100298.13;;;13.30;nan
62800;BME280;48842;51.046;13.796;2024-02-04T12:28:55;100283.22;;;13.37;nan
62800;BME280;48842;51.046;13.796;2024-02-04T12:31:22;100287.53;;;13.44;nan
62800;BME280;48842;51.046;13.796;2024-02-04T12:33:54;100282.22;;;13.49;nan
62800;BME280;48842;51.046;13.796;2024-02-04T12:36:20;100276.91;;;13.53;nan
62800;BME280;48842;51.046;13.796;2024-02-04T12:38:53;100260.25;;;13.54;nan
62800;BME280;48842;51.046;13.796;2024-02-04T12:41:19;100264.59;;;13.60;nan
62800;BME280;48842;51.046;13.796;2024-02-04T12:43:56;100275.06;;;13.66;nan
62800;BME280;48842;51.046;13.796;2024-02-04T12:46:23;100274.13;;;13.70;nan
62800;BME280;48842;51.046;13.796;2024-02-04T12:48:57;100271.50;;;13.70;nan
62800;BME280;48842;51.046;13.796;2024-02-04T12:51:26;100272.41;;;13.68;nan
62800;BME280;48842;51.046;13.796;2024-02-04T12:54:21;100259.16;;;13.75;nan
62800;BME280;48842;51.046;13.796;2024-02-04T12:56:48;100252.94;;;13.81;nan
62800;BME280;48842;51.046;13.796;2024-02-04T12:59:31;100259.00;;;13.91;nan
62800;BME280;48842;51.046;13.796;2024-02-04T13:02:06;100260.63;;;14.01;nan
62800;BME280;48842;51.046;13.796;2024-02-04T13:04:36;100245.69;;;14.02;nan